Quinlan, TX

07:02 AM CST on 31. Janúar 2015 (GMT -0600)
Deer Park | Change Station
CLOSE
Current Station
Personal Weather Stations
Location: Quinlan, TX
Elevation: 469 ft
Nearby Weather Stations

Elev 469 ft 32.88 °N, 96.10 °W | Updated 3 seconds ago

Léttskýjað
Léttskýjað
44.0 °F
Feels Like 39 °F
N
9.2
Vindur Breytileg vindátt Vindur from ASA
Gusts 9.2 mph

Í dag
High -- | Low -- °F
--% Chance of Precip.
Yesterday
High -- | Low -- °F
Precip. -- in
7:20 AM 5:55 PM
Waxing Gibbous, 89% visible
Loftþrýstingur 30.25 in
Skyggni 10.0 miles
Clouds Heiðskírt
Vindkæling 39 °F
Daggarmark 31 °F
Raki 60%
Rainfall 0.00 in
Snow Depth Not available.
UV 0 out of 12
Pollen 7.00 out of 12
Air Quality Not available.
Flu Activity Not available.
METAR KGVT 311255Z AUTO 11005KT 10SM CLR 07/00 A3025 RMK AO2

More Conditions Fewer Conditions

Loftþrýstingur 30.25 in
Skyggni 10.0 miles
Clouds Heiðskírt
Vindkæling 39 °F
Daggarmark 31 °F
Raki 60%
Rainfall 0.00 in
Snow Depth Not available.
UV 0 out of 12
Pollen 7.00 out of 12
Air Quality Not available.
Flu Activity Not available.
METAR KGVT 311255Z AUTO 11005KT 10SM CLR 07/00 A3025 RMK AO2

More Conditions Fewer Conditions

10-Day Weather Forecast

Almanac

Astronomy

Jan. 31, 2015 Rise Set
Actual Time
Civil Twilight
Nautical Twilight
Astronomical Twilight
Moon
Length Of Visible Light
Length of Day
Tomorrow will be .
, % of the Moon is Illuminated

Today's Extremes

State Highs State Lows

Community

WunderPhotos

Upload Photos

1,792,041 photos uploaded!

WunderBlogs® & News

Nearby

Air Quality

  Air Quality AQ Index Pollutant
Not available.

Snow Depth

Station Depth Elevation

Earthquake Activity

Staður Distance Mag. Time & Date
Minimum magnitude displayed is 2.5.

Coastal Water Temperatures

Staður Hitastig

Nearby Weather Stations